Time;durP1;ratioP1;P1;durP2;ratioP2;P2;SDS_P1;SDS_P2;PMS_P1;PMS_P2;Temp;Humidity;BMP_temperature;BMP_pressure;BME280_temperature;BME280_humidity;BME280_pressure;Samples;Min_cycle;Max_cycle;Signal;HPM_P1;HPM_P2
2021/12/14 00:00:32;;;;;;;1.10;0.80;;;6.10;99.90;;;;;;4995418;28;20476;-82
2021/12/14 00:03:02;;;;;;;0.47;0.40;;;6.00;99.90;;;;;;4995403;28;20439;-82
2021/12/14 00:05:31;;;;;;;0.40;0.30;;;6.00;99.90;;;;;;4995337;28;20424;-82
2021/12/14 00:08:01;;;;;;;0.30;0.23;;;6.00;99.90;;;;;;4995295;28;20479;-82
2021/12/14 00:10:58;;;;;;;0.30;0.27;;;6.00;99.90;;;;;;4995369;28;20480;-82
2021/12/14 00:13:41;;;;;;;1.33;0.40;;;6.00;99.90;;;;;;4995194;28;20535;-82
2021/12/14 00:16:10;;;;;;;0.87;0.80;;;6.10;99.90;;;;;;4995084;28;20473;-82
2021/12/14 00:18:38;;;;;;;1.20;1.10;;;6.10;99.90;;;;;;4993999;28;20445;-82
2021/12/14 00:21:10;;;;;;;0.93;0.93;;;6.00;99.90;;;;;;4994899;28;20475;-82
2021/12/14 00:26:23;;;;;;;0.30;0.20;;;5.90;99.90;;;;;;4994972;28;20408;-82
2021/12/14 00:28:51;;;;;;;1.50;1.47;;;5.90;99.90;;;;;;4994907;28;20804;-82
2021/12/14 00:31:20;;;;;;;0.30;0.30;;;5.90;99.90;;;;;;4994461;28;20980;-82
2021/12/14 00:33:50;;;;;;;0.67;0.67;;;5.90;99.90;;;;;;4994838;28;20441;-82
2021/12/14 00:36:17;;;;;;;0.40;0.30;;;5.90;99.90;;;;;;4994852;28;20510;-82
2021/12/14 00:38:45;;;;;;;0.30;0.20;;;5.90;99.90;;;;;;4994453;28;20904;-82
2021/12/14 00:41:15;;;;;;;0.30;0.20;;;5.90;99.90;;;;;;4994603;28;20483;-82
2021/12/14 00:43:43;;;;;;;0.80;0.80;;;5.90;99.90;;;;;;4994649;28;20456;-82
2021/12/14 00:46:13;;;;;;;0.30;0.30;;;5.80;99.90;;;;;;4994396;28;20484;-82
2021/12/14 00:48:40;;;;;;;0.30;0.20;;;5.80;99.90;;;;;;4994828;28;20445;-82
2021/12/14 00:51:07;;;;;;;0.30;0.30;;;5.80;99.90;;;;;;4994452;28;20468;-82
2021/12/14 00:53:35;;;;;;;0.67;0.40;;;5.90;99.90;;;;;;4994229;28;20437;-82
2021/12/14 00:56:06;;;;;;;0.43;0.40;;;5.80;99.90;;;;;;4994380;28;20829;-82
2021/12/14 00:58:34;;;;;;;0.30;0.20;;;5.80;99.90;;;;;;4994473;28;20444;-82
2021/12/14 01:01:03;;;;;;;0.30;0.20;;;5.80;99.90;;;;;;4994312;28;20476;-82
2021/12/14 01:03:34;;;;;;;0.30;0.20;;;5.80;99.90;;;;;;4994004;28;20451;-83
2021/12/14 01:06:03;;;;;;;0.43;0.43;;;5.70;99.90;;;;;;4994280;28;20444;-82
2021/12/14 01:08:34;;;;;;;0.40;0.30;;;5.80;99.90;;;;;;4994270;28;20459;-82
2021/12/14 01:11:12;;;;;;;0.30;0.20;;;5.80;99.90;;;;;;4994170;28;20469;-82
2021/12/14 01:13:41;;;;;;;0.63;0.63;;;5.80;99.90;;;;;;4994252;28;20440;-82
2021/12/14 01:16:17;;;;;;;0.67;0.67;;;5.80;99.90;;;;;;4994112;28;20491;-82
2021/12/14 01:18:59;;;;;;;0.30;0.20;;;5.80;99.90;;;;;;4994173;28;20487;-82
2021/12/14 01:21:45;;;;;;;0.30;0.30;;;5.80;99.90;;;;;;4994050;28;20479;-82
2021/12/14 01:24:24;;;;;;;0.43;0.43;;;5.80;99.90;;;;;;4994079;28;20441;-82
2021/12/14 01:26:52;;;;;;;0.30;0.30;;;5.80;99.90;;;;;;4993869;28;20447;-82
2021/12/14 01:29:19;;;;;;;0.70;0.40;;;5.80;99.90;;;;;;4993636;28;20456;-82
2021/12/14 01:31:48;;;;;;;1.03;1.03;;;5.80;99.90;;;;;;4993946;28;20516;-82
2021/12/14 01:34:19;;;;;;;0.30;0.30;;;5.80;99.90;;;;;;4993957;28;20823;-82
2021/12/14 01:36:51;;;;;;;0.57;0.50;;;5.80;99.90;;;;;;4993898;28;20483;-82
2021/12/14 01:39:44;;;;;;;0.30;0.30;;;5.80;99.90;;;;;;4993937;28;20444;-82
2021/12/14 01:42:14;;;;;;;0.30;0.27;;;5.80;99.90;;;;;;4993645;28;20555;-82
2021/12/14 01:44:43;;;;;;;0.30;0.30;;;5.80;99.90;;;;;;4993927;28;20499;-82
2021/12/14 01:47:13;;;;;;;0.30;0.30;;;5.70;99.90;;;;;;4993949;28;20413;-82
2021/12/14 01:49:41;;;;;;;0.30;0.20;;;5.70;99.90;;;;;;4993589;28;20433;-82
2021/12/14 01:52:14;;;;;;;0.30;0.20;;;5.70;99.90;;;;;;4993584;28;20459;-82
2021/12/14 01:54:46;;;;;;;0.60;0.60;;;5.70;99.90;;;;;;4993541;28;20417;-82
2021/12/14 01:57:15;;;;;;;0.63;0.63;;;5.70;99.90;;;;;;4993827;28;20441;-82
2021/12/14 01:59:45;;;;;;;0.30;0.20;;;5.70;99.90;;;;;;4993700;28;20448;-82
2021/12/14 02:02:23;;;;;;;0.30;0.20;;;5.70;99.90;;;;;;4993667;28;20472;-82
2021/12/14 02:04:54;;;;;;;1.27;1.27;;;5.60;99.90;;;;;;4993801;28;20440;-82
2021/12/14 02:07:22;;;;;;;0.30;0.20;;;5.60;99.90;;;;;;4993868;28;20449;-82
2021/12/14 02:09:54;;;;;;;0.30;0.20;;;5.60;99.90;;;;;;4993676;28;20452;-82
2021/12/14 02:12:24;;;;;;;0.30;0.20;;;5.50;99.90;;;;;;4993302;28;20851;-82
2021/12/14 02:14:52;;;;;;;0.30;0.30;;;5.40;99.90;;;;;;4993315;28;20920;-82
2021/12/14 02:17:22;;;;;;;0.30;0.20;;;5.50;99.90;;;;;;4993327;28;20448;-82
2021/12/14 02:19:51;;;;;;;0.30;0.30;;;5.40;99.90;;;;;;4993556;28;20448;-82
2021/12/14 02:22:19;;;;;;;0.30;0.20;;;5.40;99.90;;;;;;4993467;28;20480;-82
2021/12/14 02:24:49;;;;;;;0.30;0.30;;;5.30;99.90;;;;;;4993520;28;20457;-82
2021/12/14 02:27:16;;;;;;;0.30;0.20;;;5.30;99.90;;;;;;4993492;28;20457;-82
2021/12/14 02:29:45;;;;;;;0.30;0.27;;;5.20;99.90;;;;;;4993506;28;20471;-83
2021/12/14 02:32:22;;;;;;;0.30;0.30;;;5.20;99.90;;;;;;4993405;28;20472;-82
2021/12/14 02:34:51;;;;;;;0.37;0.37;;;5.20;99.90;;;;;;4993460;28;20444;-82
2021/12/14 02:37:36;;;;;;;0.30;0.20;;;5.20;99.90;;;;;;4993437;28;20459;-82
2021/12/14 02:40:14;;;;;;;0.63;0.40;;;5.20;99.90;;;;;;4993414;28;20444;-82
2021/12/14 02:42:41;;;;;;;0.63;0.37;;;5.20;99.90;;;;;;4995483;28;20494;-82
2021/12/14 02:45:09;;;;;;;0.30;0.20;;;5.10;99.90;;;;;;4996583;28;20551;-82
2021/12/14 02:47:36;;;;;;;0.30;0.20;;;5.20;99.90;;;;;;4996494;28;20445;-82
2021/12/14 02:50:04;;;;;;;0.67;0.67;;;5.10;99.90;;;;;;4996375;28;20452;-82
2021/12/14 02:52:36;;;;;;;0.30;0.30;;;5.20;99.90;;;;;;4996788;28;20436;-82
2021/12/14 02:55:10;;;;;;;0.30;0.30;;;5.10;99.90;;;;;;4996367;28;20869;-82
2021/12/14 02:57:40;;;;;;;0.30;0.30;;;5.20;99.90;;;;;;4996328;28;20837;-82
2021/12/14 03:00:10;;;;;;;0.30;0.20;;;5.10;99.90;;;;;;4996517;28;20459;-82
2021/12/14 03:02:37;;;;;;;0.30;0.30;;;5.10;99.90;;;;;;4996217;28;20453;-82
2021/12/14 03:05:09;;;;;;;0.30;0.20;;;5.10;99.90;;;;;;4996465;28;20457;-82
2021/12/14 03:07:43;;;;;;;0.30;0.20;;;5.00;99.90;;;;;;4996710;28;20432;-82
2021/12/14 03:10:33;;;;;;;0.30;0.30;;;5.00;99.90;;;;;;4996381;28;20444;-82
2021/12/14 03:13:03;;;;;;;0.40;0.30;;;5.00;99.90;;;;;;4996343;28;20444;-82
2021/12/14 03:15:33;;;;;;;0.30;0.30;;;4.90;99.90;;;;;;4996226;28;20484;-82
2021/12/14 03:18:07;;;;;;;0.30;0.30;;;4.90;99.90;;;;;;4996239;28;20547;-82
2021/12/14 03:20:37;;;;;;;0.30;0.20;;;4.90;99.90;;;;;;4995951;28;20472;-82
2021/12/14 03:23:10;;;;;;;0.43;0.43;;;4.90;99.90;;;;;;4996199;28;20433;-82
2021/12/14 03:25:41;;;;;;;0.33;0.30;;;4.80;99.90;;;;;;4996155;28;20437;-82
2021/12/14 03:28:11;;;;;;;0.30;0.20;;;4.90;99.90;;;;;;4996567;28;20867;-82
2021/12/14 03:30:53;;;;;;;0.30;0.30;;;4.80;99.90;;;;;;4996202;28;20464;-82
2021/12/14 03:33:26;;;;;;;0.30;0.30;;;4.70;99.90;;;;;;4995688;28;20437;-82
2021/12/14 03:35:58;;;;;;;0.83;0.33;;;4.70;99.90;;;;;;4995894;28;20473;-82
2021/12/14 03:38:30;;;;;;;0.30;0.20;;;4.70;99.90;;;;;;4995909;28;20433;-82
2021/12/14 03:41:00;;;;;;;0.30;0.20;;;4.70;99.90;;;;;;4995801;28;20476;-82
2021/12/14 03:43:27;;;;;;;0.30;0.20;;;4.70;99.90;;;;;;4995479;28;20806;-82
2021/12/14 03:45:56;;;;;;;0.50;0.47;;;4.60;99.90;;;;;;4995289;28;20480;-82
2021/12/14 03:48:25;;;;;;;0.30;0.30;;;4.70;99.90;;;;;;4995727;28;20433;-82
2021/12/14 03:50:52;;;;;;;0.30;0.30;;;4.70;99.90;;;;;;4995450;28;20994;-82
2021/12/14 03:53:21;;;;;;;0.30;0.30;;;4.70;99.90;;;;;;4995269;28;20460;-82
2021/12/14 03:55:53;;;;;;;0.30;0.20;;;4.70;99.90;;;;;;4995444;28;20496;-82
2021/12/14 03:58:22;;;;;;;0.30;0.20;;;4.60;99.90;;;;;;4995541;28;20437;-82
2021/12/14 04:00:54;;;;;;;1.27;0.40;;;4.60;99.90;;;;;;4995350;28;20476;-82
2021/12/14 04:03:23;;;;;;;0.40;0.40;;;4.60;99.90;;;;;;4995436;28;20429;-82
2021/12/14 04:05:50;;;;;;;0.40;0.30;;;4.60;99.90;;;;;;4995298;28;20448;-82
2021/12/14 04:08:18;;;;;;;0.30;0.20;;;4.50;99.90;;;;;;4995270;28;20491;-82
2021/12/14 04:10:48;;;;;;;0.30;0.20;;;4.50;99.90;;;;;;4995153;28;20453;-82
2021/12/14 04:13:19;;;;;;;0.30;0.20;;;4.50;99.90;;;;;;4995120;28;20449;-82
2021/12/14 04:15:45;;;;;;;0.30;0.20;;;4.60;99.90;;;;;;4994883;28;20469;-82
2021/12/14 04:18:12;;;;;;;0.30;0.30;;;4.60;99.90;;;;;;4994769;28;20963;-82
2021/12/14 04:20:42;;;;;;;0.30;0.30;;;4.50;99.90;;;;;;4994980;28;20469;-82
2021/12/14 04:23:12;;;;;;;0.30;0.20;;;4.50;99.90;;;;;;4994982;28;20465;-82
2021/12/14 04:25:40;;;;;;;0.30;0.30;;;4.50;99.90;;;;;;4994678;28;20952;-82
2021/12/14 04:28:11;;;;;;;0.30;0.20;;;4.40;99.90;;;;;;4994920;28;20494;-82
2021/12/14 04:30:40;;;;;;;0.30;0.20;;;4.30;99.90;;;;;;4994856;28;20464;-82
2021/12/14 04:33:12;;;;;;;0.30;0.20;;;4.40;99.90;;;;;;4994895;28;20449;-82
2021/12/14 04:35:41;;;;;;;0.40;0.40;;;4.40;99.90;;;;;;4994741;28;20433;-82
2021/12/14 04:38:18;;;;;;;0.30;0.30;;;4.20;99.90;;;;;;4994719;28;20515;-81
2021/12/14 04:51:58;;;;;;;0.30;0.20;;;4.10;99.90;;;;;;4994836;28;20503;-82
2021/12/14 04:54:26;;;;;;;0.30;0.20;;;4.00;99.90;;;;;;4994508;28;20535;-82
2021/12/14 04:56:53;;;;;;;0.30;0.20;;;4.00;99.90;;;;;;4994345;28;20484;-82
2021/12/14 04:59:23;;;;;;;0.47;0.47;;;4.00;99.90;;;;;;4994587;28;20456;-82
2021/12/14 05:01:55;;;;;;;0.30;0.30;;;3.90;99.90;;;;;;4994581;28;20531;-82
2021/12/14 05:04:25;;;;;;;0.30;0.30;;;3.90;99.90;;;;;;4993440;28;20818;-82
2021/12/14 05:07:02;;;;;;;0.30;0.30;;;4.00;99.90;;;;;;4994355;28;20432;-82
2021/12/14 05:09:30;;;;;;;0.43;0.40;;;4.00;99.90;;;;;;4994328;28;20527;-82
2021/12/14 05:12:01;;;;;;;0.30;0.30;;;4.00;99.90;;;;;;4994136;28;20568;-82
2021/12/14 05:14:30;;;;;;;0.30;0.20;;;4.00;99.90;;;;;;4993941;28;20440;-82
2021/12/14 05:17:01;;;;;;;0.50;0.50;;;4.00;99.90;;;;;;4994344;28;20483;-82
2021/12/14 05:19:30;;;;;;;0.50;0.30;;;3.90;99.90;;;;;;4994141;28;20487;-82
2021/12/14 05:22:02;;;;;;;0.30;0.20;;;4.00;99.90;;;;;;4994056;28;20476;-82
2021/12/14 05:24:29;;;;;;;0.30;0.20;;;3.90;99.90;;;;;;4994135;28;20437;-82
2021/12/14 05:26:58;;;;;;;0.30;0.20;;;3.90;99.90;;;;;;4993746;28;20452;-82
2021/12/14 05:29:27;;;;;;;0.30;0.20;;;3.90;99.90;;;;;;4994021;28;20452;-82
2021/12/14 05:31:54;;;;;;;0.30;0.20;;;3.90;99.90;;;;;;4993941;28;20829;-82
2021/12/14 05:34:25;;;;;;;0.30;0.20;;;3.90;99.90;;;;;;4993992;28;20456;-82
2021/12/14 05:36:52;;;;;;;0.40;0.40;;;3.90;99.90;;;;;;4993791;28;20851;-82
2021/12/14 05:44:48;;;;;;;2.73;0.77;;;3.70;99.90;;;;;;4993559;28;20476;-82
2021/12/14 05:47:18;;;;;;;0.30;0.30;;;3.70;99.90;;;;;;4993848;28;20452;-82
2021/12/14 05:49:48;;;;;;;0.30;0.20;;;3.60;99.90;;;;;;4993603;28;20435;-82
2021/12/14 05:52:18;;;;;;;0.30;0.20;;;3.60;99.90;;;;;;4993819;28;20856;-82
2021/12/14 05:54:46;;;;;;;0.47;0.47;;;3.60;99.90;;;;;;4993590;28;20429;-82
2021/12/14 05:57:16;;;;;;;0.30;0.20;;;3.50;99.90;;;;;;4993885;28;20495;-82
2021/12/14 05:59:43;;;;;;;0.30;0.30;;;3.50;99.90;;;;;;4993477;28;20932;-82
2021/12/14 06:02:10;;;;;;;0.40;0.30;;;3.50;99.90;;;;;;4993646;28;20468;-82
2021/12/14 06:04:41;;;;;;;0.30;0.30;;;3.50;99.90;;;;;;4993399;28;20448;-82
2021/12/14 06:07:10;;;;;;;0.30;0.20;;;3.40;99.90;;;;;;4993730;28;20429;-82
2021/12/14 06:09:40;;;;;;;0.77;0.77;;;3.40;99.90;;;;;;4993368;28;20496;-82
2021/12/14 06:12:12;;;;;;;0.30;0.30;;;3.30;99.90;;;;;;4993223;28;20980;-82
2021/12/14 06:14:44;;;;;;;0.30;0.30;;;3.40;99.90;;;;;;4993318;28;20939;-82
2021/12/14 06:17:12;;;;;;;3.63;0.70;;;3.30;99.90;;;;;;4996571;28;21054;-83
2021/12/14 06:19:41;;;;;;;0.40;0.40;;;3.40;99.90;;;;;;4997083;28;20437;-82
2021/12/14 06:22:12;;;;;;;0.30;0.20;;;3.40;99.90;;;;;;4996962;28;20460;-82
2021/12/14 06:24:42;;;;;;;0.30;0.30;;;3.40;99.90;;;;;;4997189;28;20440;-82
2021/12/14 06:27:11;;;;;;;0.30;0.30;;;3.40;99.90;;;;;;4997402;28;20451;-82
2021/12/14 06:29:41;;;;;;;0.40;0.40;;;3.30;99.90;;;;;;4997163;28;20452;-82
2021/12/14 06:32:09;;;;;;;0.30;0.20;;;3.30;99.90;;;;;;4996788;28;20999;-82
2021/12/14 06:34:42;;;;;;;0.30;0.20;;;3.40;99.90;;;;;;4996820;28;20451;-82
2021/12/14 06:40:27;;;;;;;0.30;0.30;;;3.30;99.90;;;;;;4992945;28;20468;-82
2021/12/14 06:42:55;;;;;;;0.30;0.20;;;3.20;99.90;;;;;;4997428;28;20451;-82
2021/12/14 06:45:25;;;;;;;0.30;0.30;;;3.20;99.90;;;;;;4996612;28;20484;-82
2021/12/14 06:47:57;;;;;;;0.57;0.50;;;3.10;99.90;;;;;;4996577;28;20809;-82
2021/12/14 06:50:29;;;;;;;0.30;0.30;;;3.10;99.90;;;;;;4996724;28;20556;-82
2021/12/14 06:53:00;;;;;;;0.30;0.20;;;3.10;99.90;;;;;;4996764;28;20440;-82
2021/12/14 06:55:28;;;;;;;0.30;0.20;;;3.20;99.90;;;;;;4996710;28;20432;-82
2021/12/14 06:58:10;;;;;;;0.30;0.30;;;3.10;99.90;;;;;;4996562;28;20491;-82
2021/12/14 07:00:39;;;;;;;0.30;0.20;;;3.20;99.90;;;;;;4996819;28;20472;-77
2021/12/14 07:03:06;;;;;;;0.30;0.30;;;3.20;99.90;;;;;;4996537;28;20452;-78
2021/12/14 07:05:34;;;;;;;0.40;0.30;;;3.20;99.90;;;;;;4996477;28;20460;-77
2021/12/14 07:08:09;;;;;;;0.40;0.30;;;3.20;99.90;;;;;;4996197;28;20819;-77
2021/12/14 07:10:36;;;;;;;0.50;0.50;;;3.30;99.90;;;;;;4996337;28;20464;-77
2021/12/14 07:13:11;;;;;;;0.30;0.30;;;3.40;99.90;;;;;;4996205;28;20441;-76
2021/12/14 07:15:38;;;;;;;0.30;0.20;;;3.30;99.90;;;;;;4996102;28;20412;-77
2021/12/14 07:18:06;;;;;;;0.30;0.30;;;3.40;99.90;;;;;;4995955;28;21002;-76
2021/12/14 07:20:35;;;;;;;0.30;0.20;;;3.40;99.90;;;;;;4996219;28;20526;-76
2021/12/14 07:23:15;;;;;;;0.30;0.20;;;3.40;99.90;;;;;;4996229;28;20764;-77
2021/12/14 07:25:44;;;;;;;0.30;0.30;;;3.50;99.90;;;;;;4996511;28;20789;-77
2021/12/14 07:28:13;;;;;;;0.30;0.20;;;3.50;99.90;;;;;;4995411;28;20499;-76
2021/12/14 07:30:43;;;;;;;0.30;0.30;;;3.50;99.90;;;;;;4996006;28;20477;-76
2021/12/14 07:33:12;;;;;;;0.30;0.20;;;3.50;99.90;;;;;;4995959;28;20470;-76
2021/12/14 07:35:47;;;;;;;0.60;0.60;;;3.60;99.90;;;;;;4996110;28;20440;-76
2021/12/14 07:38:31;;;;;;;0.30;0.20;;;3.60;99.90;;;;;;4995898;28;20832;-76
2021/12/14 07:41:05;;;;;;;0.30;0.30;;;3.70;99.90;;;;;;4995721;28;20475;-76
2021/12/14 07:43:38;;;;;;;0.30;0.30;;;3.70;99.90;;;;;;4995738;28;20453;-76
2021/12/14 07:46:20;;;;;;;0.30;0.20;;;3.70;99.90;;;;;;4995281;28;20465;-77
2021/12/14 07:48:50;;;;;;;0.30;0.30;;;3.70;99.90;;;;;;4995924;28;20425;-76
2021/12/14 07:51:18;;;;;;;0.30;0.20;;;3.70;99.90;;;;;;4995555;28;20469;-76
2021/12/14 07:53:51;;;;;;;0.30;0.30;;;3.80;99.90;;;;;;4995326;28;20448;-76
2021/12/14 07:56:34;;;;;;;0.30;0.30;;;3.80;99.90;;;;;;4995552;28;20436;-77
2021/12/14 07:59:02;;;;;;;0.73;0.70;;;3.90;99.90;;;;;;4995227;28;20913;-77
2021/12/14 08:01:29;;;;;;;0.30;0.20;;;3.90;99.90;;;;;;4995368;28;20475;-77
2021/12/14 08:04:06;;;;;;;0.30;0.30;;;4.00;99.90;;;;;;4995041;28;20821;-77
2021/12/14 08:06:48;;;;;;;0.30;0.20;;;4.10;99.90;;;;;;4995068;28;20864;-77
2021/12/14 08:09:20;;;;;;;0.30;0.30;;;4.10;99.90;;;;;;4995326;28;20435;-77
2021/12/14 08:11:48;;;;;;;0.33;0.33;;;4.10;99.90;;;;;;4994962;28;20449;-77
2021/12/14 08:14:24;;;;;;;0.30;0.30;;;4.10;99.90;;;;;;4994915;28;20444;-77
2021/12/14 08:16:55;;;;;;;0.30;0.20;;;4.10;99.90;;;;;;4995144;28;20428;-77
2021/12/14 08:19:30;;;;;;;1.03;1.03;;;4.10;99.90;;;;;;4994757;28;20453;-77
2021/12/14 08:21:58;;;;;;;0.30;0.20;;;4.00;99.90;;;;;;4995046;28;20504;-77
2021/12/14 08:24:26;;;;;;;0.30;0.20;;;4.00;99.90;;;;;;4994948;28;20453;-77
2021/12/14 08:26:56;;;;;;;0.30;0.20;;;4.10;99.90;;;;;;4994919;28;20961;-77
2021/12/14 08:29:25;;;;;;;0.30;0.30;;;4.10;99.90;;;;;;4995042;28;20817;-77
2021/12/14 08:31:56;;;;;;;0.70;0.40;;;4.20;99.90;;;;;;4994565;28;20457;-76
2021/12/14 08:34:25;;;;;;;0.30;0.20;;;4.10;99.90;;;;;;4994908;28;20449;-76
2021/12/14 08:36:56;;;;;;;0.30;0.20;;;4.20;99.90;;;;;;4994416;28;20975;-76
2021/12/14 08:39:27;;;;;;;0.30;0.30;;;4.20;99.90;;;;;;4993868;28;20799;-76
2021/12/14 08:42:09;;;;;;;0.97;0.53;;;4.20;99.90;;;;;;4994382;28;20465;-76
2021/12/14 08:44:40;;;;;;;0.30;0.20;;;4.30;99.90;;;;;;4993556;28;20905;-77
2021/12/14 08:47:10;;;;;;;0.30;0.20;;;4.40;99.90;;;;;;4994893;28;20860;-77
2021/12/14 08:49:38;;;;;;;0.30;0.30;;;4.50;99.90;;;;;;4994346;28;20916;-76
2021/12/14 08:52:06;;;;;;;0.30;0.30;;;4.60;99.90;;;;;;4994374;28;20473;-77
2021/12/14 08:54:37;;;;;;;0.37;0.27;;;4.70;99.90;;;;;;4994747;28;20452;-77
2021/12/14 08:57:08;;;;;;;0.30;0.30;;;4.80;99.90;;;;;;4994412;28;20432;-77
2021/12/14 08:59:37;;;;;;;0.30;0.20;;;4.90;99.90;;;;;;4994396;28;20452;-76
2021/12/14 09:02:07;;;;;;;0.87;0.60;;;5.00;99.90;;;;;;4994878;28;20464;-77
2021/12/14 09:04:37;;;;;;;0.77;0.60;;;5.10;99.90;;;;;;4994614;28;20445;-77
2021/12/14 09:07:08;;;;;;;0.43;0.43;;;5.10;99.90;;;;;;4993965;28;20459;-77
2021/12/14 09:09:38;;;;;;;0.30;0.30;;;5.10;99.90;;;;;;4994936;28;20456;-77
2021/12/14 09:12:10;;;;;;;1.10;0.40;;;5.30;99.90;;;;;;4994067;28;20473;-77
2021/12/14 09:14:38;;;;;;;0.30;0.30;;;5.40;99.90;;;;;;4994300;28;20432;-77
2021/12/14 09:17:07;;;;;;;0.30;0.30;;;5.50;99.90;;;;;;4994014;28;20971;-77
2021/12/14 09:19:37;;;;;;;2.40;0.67;;;5.60;99.90;;;;;;4994124;28;20452;-77
2021/12/14 09:22:07;;;;;;;0.30;0.20;;;5.70;99.90;;;;;;4993876;28;20456;-77
2021/12/14 09:24:36;;;;;;;0.40;0.30;;;5.70;99.90;;;;;;4993763;28;20448;-77
2021/12/14 09:27:06;;;;;;;0.30;0.30;;;5.80;99.90;;;;;;4993787;28;20459;-77
2021/12/14 09:29:34;;;;;;;0.30;0.20;;;5.90;99.90;;;;;;4994469;28;20449;-77
2021/12/14 09:32:06;;;;;;;0.30;0.30;;;6.00;99.90;;;;;;4993928;28;20476;-77
2021/12/14 09:34:35;;;;;;;0.40;0.30;;;6.10;99.90;;;;;;4993740;28;20428;-77
2021/12/14 09:37:04;;;;;;;0.40;0.30;;;6.20;99.90;;;;;;4993564;28;20445;-77
2021/12/14 09:39:35;;;;;;;0.30;0.20;;;6.40;99.90;;;;;;4994170;28;20440;-77
2021/12/14 09:42:07;;;;;;;0.30;0.30;;;6.60;99.90;;;;;;4993872;28;20480;-77
2021/12/14 09:44:36;;;;;;;0.30;0.20;;;7.00;99.90;;;;;;4993909;28;20463;-77
2021/12/14 09:47:09;;;;;;;0.67;0.67;;;7.50;99.90;;;;;;4994144;28;20826;-77
2021/12/14 09:49:36;;;;;;;0.30;0.30;;;8.00;99.90;;;;;;4993859;28;20448;-77
2021/12/14 09:52:08;;;;;;;0.30;0.20;;;8.10;99.90;;;;;;4997044;28;20468;-77
2021/12/14 09:54:36;;;;;;;0.30;0.30;;;8.40;99.90;;;;;;4998680;28;20436;-77
2021/12/14 09:57:09;;;;;;;0.30;0.30;;;8.70;99.90;;;;;;4997772;28;20472;-77
2021/12/14 09:59:37;;;;;;;0.70;0.40;;;9.40;99.90;;;;;;4998139;28;20787;-77
2021/12/14 10:02:08;;;;;;;0.40;0.30;;;9.90;99.90;;;;;;4997615;28;20476;-77
2021/12/14 10:04:39;;;;;;;0.30;0.20;;;10.20;99.90;;;;;;4997699;28;20440;-78
2021/12/14 10:07:08;;;;;;;0.40;0.40;;;10.50;99.90;;;;;;4997657;28;20782;-77
2021/12/14 10:09:43;;;;;;;0.30;0.20;;;10.50;99.90;;;;;;4997612;28;20444;-77
2021/12/14 10:12:41;;;;;;;0.30;0.30;;;10.40;99.90;;;;;;4997169;28;20514;-77
2021/12/14 10:15:11;;;;;;;0.40;0.30;;;10.00;99.90;;;;;;4996990;28;20527;-77
2021/12/14 10:17:40;;;;;;;2.47;1.43;;;9.70;99.90;;;;;;4997125;28;20467;-77
2021/12/14 10:20:09;;;;;;;0.40;0.30;;;9.50;99.90;;;;;;4997013;28;20928;-77
2021/12/14 10:22:36;;;;;;;0.33;0.30;;;9.20;99.90;;;;;;4997089;28;20913;-77
2021/12/14 10:25:07;;;;;;;0.60;0.33;;;9.00;99.90;;;;;;4997432;28;20449;-77
2021/12/14 10:27:38;;;;;;;0.30;0.30;;;8.80;99.90;;;;;;4997076;28;20428;-77
2021/12/14 10:30:08;;;;;;;0.30;0.30;;;8.50;99.90;;;;;;4997232;28;20448;-77
2021/12/14 10:32:36;;;;;;;0.40;0.30;;;8.30;99.90;;;;;;4996850;28;20436;-77
2021/12/14 10:35:08;;;;;;;0.30;0.20;;;8.20;99.90;;;;;;4997088;28;20436;-77
2021/12/14 10:37:51;;;;;;;1.90;0.47;;;8.00;99.90;;;;;;4997018;28;20881;-77
2021/12/14 10:43:15;;;;;;;0.47;0.30;;;7.90;99.90;;;;;;4996728;28;20408;-77
2021/12/14 10:45:46;;;;;;;0.40;0.30;;;7.90;99.90;;;;;;4996643;28;20579;-77
2021/12/14 10:48:14;;;;;;;0.40;0.30;;;7.90;99.90;;;;;;4996856;28;20433;-77
2021/12/14 10:50:42;;;;;;;0.40;0.30;;;8.00;99.90;;;;;;4996461;28;20483;-77
2021/12/14 10:53:11;;;;;;;0.60;0.30;;;8.10;99.90;;;;;;4996533;28;20904;-77
2021/12/14 10:55:42;;;;;;;1.03;0.33;;;8.10;99.90;;;;;;4996430;28;20928;-77
2021/12/14 10:58:12;;;;;;;1.73;0.50;;;8.10;99.90;;;;;;4996607;28;20468;-77
2021/12/14 11:00:43;;;;;;;0.30;0.30;;;8.00;99.90;;;;;;4996373;28;20805;-77
2021/12/14 11:03:16;;;;;;;0.40;0.30;;;8.00;99.90;;;;;;4995571;28;20473;-77
2021/12/14 11:05:46;;;;;;;0.37;0.30;;;8.00;99.90;;;;;;4996530;28;20532;-77
2021/12/14 11:08:34;;;;;;;0.40;0.40;;;7.90;99.90;;;;;;4997295;28;20441;-77
2021/12/14 11:11:04;;;;;;;0.70;0.30;;;7.80;99.90;;;;;;4996383;28;20487;-77
2021/12/14 11:13:41;;;;;;;0.30;0.30;;;7.80;99.90;;;;;;4996162;28;20418;-77
2021/12/14 11:16:15;;;;;;;0.40;0.30;;;7.80;99.90;;;;;;4996313;28;20441;-77
2021/12/14 11:18:44;;;;;;;0.50;0.30;;;7.80;99.90;;;;;;4996345;28;20471;-77
2021/12/14 11:21:14;;;;;;;0.50;0.27;;;7.80;99.90;;;;;;4996210;28;20484;-77
2021/12/14 11:23:43;;;;;;;0.30;0.30;;;7.70;99.90;;;;;;4996196;28;20476;-77
2021/12/14 11:26:15;;;;;;;0.40;0.30;;;7.60;99.90;;;;;;4996150;28;20451;-77
2021/12/14 11:28:46;;;;;;;0.57;0.33;;;7.50;99.90;;;;;;4995871;28;20429;-77
2021/12/14 11:31:18;;;;;;;0.30;0.30;;;7.50;99.90;;;;;;4995921;28;20479;-77
2021/12/14 11:33:47;;;;;;;0.47;0.37;;;7.60;99.90;;;;;;4996008;28;20440;-77
2021/12/14 11:36:17;;;;;;;0.30;0.30;;;7.60;99.90;;;;;;4995731;28;20779;-77
2021/12/14 11:38:47;;;;;;;0.30;0.20;;;7.60;99.90;;;;;;4995528;28;20855;-77
2021/12/14 11:41:32;;;;;;;0.60;0.30;;;7.60;99.90;;;;;;4995833;28;20472;-76
2021/12/14 11:44:06;;;;;;;0.30;0.20;;;7.60;99.90;;;;;;4995845;28;20425;-77
2021/12/14 11:46:45;;;;;;;0.30;0.30;;;7.60;99.90;;;;;;4995436;28;20523;-77
2021/12/14 11:49:12;;;;;;;0.30;0.20;;;7.60;99.90;;;;;;4995682;28;20421;-78
2021/12/14 11:51:39;;;;;;;0.40;0.40;;;7.60;99.90;;;;;;4995477;28;20484;-78
2021/12/14 11:54:06;;;;;;;0.30;0.27;;;7.60;99.90;;;;;;4995313;28;20815;-76
2021/12/14 11:56:34;;;;;;;0.30;0.20;;;7.60;99.90;;;;;;4995626;28;20429;-78
2021/12/14 11:59:05;;;;;;;0.30;0.30;;;7.60;99.90;;;;;;4995167;28;20540;-78
2021/12/14 12:01:35;;;;;;;0.40;0.30;;;7.70;99.90;;;;;;4995559;28;20563;-78
2021/12/14 12:04:05;;;;;;;0.30;0.30;;;7.70;99.90;;;;;;4995876;28;20504;-78
2021/12/14 12:09:28;;;;;;;0.30;0.30;;;7.80;99.90;;;;;;4995415;28;20441;-78
2021/12/14 12:09:35;;;;;;;0.30;0.30;;;7.90;99.90;;;;;;4994746;28;20528;-78
2021/12/14 12:12:17;;;;;;;0.40;0.30;;;8.00;99.90;;;;;;4994939;28;20464;-78
2021/12/14 12:14:48;;;;;;;0.40;0.30;;;8.10;99.90;;;;;;4995077;28;20432;-78
2021/12/14 12:17:22;;;;;;;0.40;0.40;;;8.20;99.90;;;;;;4995216;28;20443;-78
2021/12/14 12:19:56;;;;;;;0.30;0.30;;;8.30;99.90;;;;;;4994774;28;20862;-78
2021/12/14 12:22:23;;;;;;;0.30;0.30;;;8.30;99.90;;;;;;4995045;28;20479;-78
2021/12/14 12:24:52;;;;;;;0.30;0.30;;;8.40;99.90;;;;;;4994784;28;20444;-78
2021/12/14 12:27:28;;;;;;;2.60;0.63;;;8.50;99.90;;;;;;4995075;28;20433;-78
2021/12/14 12:30:28;;;;;;;0.30;0.20;;;8.50;99.90;;;;;;4994954;28;20582;-78
2021/12/14 12:32:57;;;;;;;1.40;0.70;;;8.60;99.90;;;;;;4994857;28;20514;-78
2021/12/14 12:35:31;;;;;;;0.57;0.57;;;8.60;99.90;;;;;;4995151;28;20861;-78
2021/12/14 12:38:02;;;;;;;0.30;0.20;;;8.70;99.90;;;;;;4994523;28;20409;-78
2021/12/14 12:40:37;;;;;;;0.40;0.30;;;8.70;99.90;;;;;;4994570;28;20472;-78
2021/12/14 12:43:17;;;;;;;0.40;0.30;;;8.70;99.90;;;;;;4994372;28;20441;-78
2021/12/14 12:45:59;;;;;;;0.40;0.30;;;8.70;99.90;;;;;;4994321;28;20499;-78
2021/12/14 12:49:03;;;;;;;0.30;0.30;;;8.60;99.90;;;;;;4994595;28;20457;-78
2021/12/14 12:51:45;;;;;;;0.50;0.40;;;8.60;99.90;;;;;;4987471;28;20487;-78
2021/12/14 12:54:32;;;;;;;0.30;0.30;;;8.60;99.90;;;;;;4994221;28;20440;-78
2021/12/14 12:57:14;;;;;;;0.30;0.30;;;8.60;99.90;;;;;;4985636;28;20468;-78
2021/12/14 12:59:48;;;;;;;0.40;0.40;;;8.60;99.90;;;;;;4994872;28;20483;-78
2021/12/14 13:02:22;;;;;;;0.30;0.30;;;8.60;99.90;;;;;;4994965;28;20481;-78
2021/12/14 13:04:54;;;;;;;0.53;0.53;;;8.60;99.90;;;;;;4994208;28;20437;-78
2021/12/14 13:07:35;;;;;;;0.60;0.30;;;8.50;99.90;;;;;;4994312;28;20445;-78
2021/12/14 13:10:09;;;;;;;0.30;0.30;;;8.60;99.90;;;;;;4994247;28;20429;-78
2021/12/14 13:12:46;;;;;;;0.37;0.37;;;8.60;99.90;;;;;;4994325;28;20452;-78
2021/12/14 13:15:49;;;;;;;1.40;0.30;;;8.50;99.90;;;;;;4993986;28;20944;-78
2021/12/14 13:18:40;;;;;;;0.50;0.30;;;8.50;99.90;;;;;;4994151;28;20437;-78
2021/12/14 13:21:13;;;;;;;0.33;0.30;;;8.50;99.90;;;;;;4994285;28;20825;-79
2021/12/14 13:23:52;;;;;;;0.30;0.30;;;8.40;99.90;;;;;;4994055;28;20432;-78
2021/12/14 13:26:31;;;;;;;0.47;0.33;;;8.40;99.90;;;;;;4993394;28;20443;-78
2021/12/14 13:29:03;;;;;;;0.30;0.30;;;8.40;99.90;;;;;;4994036;28;20425;-78
2021/12/14 13:31:32;;;;;;;0.40;0.40;;;8.40;99.90;;;;;;4993616;28;21093;-78
2021/12/14 13:34:02;;;;;;;0.40;0.40;;;8.40;99.90;;;;;;4993835;28;20459;-77
2021/12/14 13:36:28;;;;;;;0.40;0.37;;;8.40;99.90;;;;;;4993689;28;20939;-78
2021/12/14 13:38:55;;;;;;;0.30;0.27;;;8.30;99.90;;;;;;4993849;28;20487;-78
2021/12/14 13:41:48;;;;;;;0.30;0.30;;;8.30;99.90;;;;;;4993522;28;20472;-77
2021/12/14 13:44:15;;;;;;;0.30;0.30;;;8.30;99.90;;;;;;4993909;28;20453;-78
2021/12/14 13:46:43;;;;;;;0.40;0.40;;;8.30;99.90;;;;;;4993727;28;20484;-78